Time;durP1;ratioP1;P1;durP2;ratioP2;P2;SDS_P1;SDS_P2;PMS_P1;PMS_P2;Temp;Humidity;BMP_temperature;BMP_pressure;BME280_temperature;BME280_humidity;BME280_pressure;Samples;Min_cycle;Max_cycle;Signal;HPM_P1;HPM_P2
2024/03/17 00:02:09;;;;;;;22.52;17.00;;;;;;;;;;5139316;27;20025;-51
2024/03/17 00:04:35;;;;;;;24.85;17.45;;;;;;;;;;5158215;27;20022;-53
2024/03/17 00:07:01;;;;;;;24.15;17.88;;;;;;;;;;5157887;27;20357;-52
2024/03/17 00:09:27;;;;;;;25.02;18.33;;;;;;;;;;5139041;27;20046;-53
2024/03/17 00:11:53;;;;;;;23.38;18.30;;;;;;;;;;5158163;27;20082;-55
2024/03/17 00:14:19;;;;;;;25.67;19.10;;;;;;;;;;5157817;27;20102;-53
2024/03/17 00:16:45;;;;;;;27.30;19.83;;;;;;;;;;5157932;27;20019;-53
2024/03/17 00:19:11;;;;;;;28.40;20.08;;;;;;;;;;5157153;27;20380;-53
2024/03/17 00:21:37;;;;;;;25.85;20.83;;;;;;;;;;5158006;27;20018;-51
2024/03/17 00:24:03;;;;;;;26.33;21.88;;;;;;;;;;5139365;27;20064;-54
2024/03/17 00:26:29;;;;;;;26.83;21.00;;;;;;;;;;5157603;27;20015;-51
2024/03/17 00:28:56;;;;;;;25.92;21.52;;;;;;;;;;5139199;27;20022;-52
2024/03/17 00:31:25;;;;;;;27.90;20.65;;;;;;;;;;5157762;27;20055;-50
2024/03/17 00:33:54;;;;;;;29.80;22.77;;;;;;;;;;5157756;27;20037;-54
2024/03/17 00:36:20;;;;;;;25.85;22.98;;;;;;;;;;5157348;27;20018;-51
2024/03/17 00:38:46;;;;;;;28.98;23.35;;;;;;;;;;5138834;27;20375;-52
2024/03/17 00:41:12;;;;;;;28.67;24.42;;;;;;;;;;5157304;27;20052;-50
2024/03/17 00:43:38;;;;;;;34.45;24.45;;;;;;;;;;5157523;27;20018;-49
2024/03/17 00:46:04;;;;;;;28.25;24.27;;;;;;;;;;5157099;27;20018;-52
2024/03/17 00:48:31;;;;;;;30.15;24.95;;;;;;;;;;5157029;27;20037;-53
2024/03/17 00:50:58;;;;;;;34.63;25.48;;;;;;;;;;5157125;27;20050;-49
2024/03/17 00:53:24;;;;;;;32.58;24.95;;;;;;;;;;5157008;27;20109;-52
2024/03/17 00:55:53;;;;;;;33.92;25.23;;;;;;;;;;5157017;27;20046;-53
2024/03/17 00:58:20;;;;;;;28.95;24.75;;;;;;;;;;5156850;27;20027;-49
2024/03/17 01:03:50;;;;;;;30.60;24.48;;;;;;;;;;5150435;27;20025;-49
2024/03/17 01:06:16;;;;;;;32.58;25.73;;;;;;;;;;5151317;27;20039;-54
2024/03/17 01:08:43;;;;;;;30.58;26.08;;;;;;;;;;5149948;27;20023;-54
2024/03/17 01:11:14;;;;;;;32.83;25.60;;;;;;;;;;5149276;27;20072;-49
2024/03/17 01:13:41;;;;;;;29.85;24.20;;;;;;;;;;5153858;27;20037;-52
2024/03/17 01:16:07;;;;;;;31.63;26.17;;;;;;;;;;5155427;27;20023;-52
2024/03/17 01:18:34;;;;;;;30.58;25.50;;;;;;;;;;5154911;27;20057;-51
2024/03/17 01:21:01;;;;;;;32.90;26.88;;;;;;;;;;5155368;27;20391;-51
2024/03/17 01:23:27;;;;;;;32.40;24.95;;;;;;;;;;5155217;27;20101;-50
2024/03/17 01:25:53;;;;;;;32.10;25.55;;;;;;;;;;5155451;27;20030;-49
2024/03/17 01:28:19;;;;;;;33.65;25.48;;;;;;;;;;5155237;27;20048;-50
2024/03/17 01:30:57;;;;;;;30.30;24.65;;;;;;;;;;5155316;27;20058;-55
2024/03/17 01:33:24;;;;;;;28.90;25.15;;;;;;;;;;5154374;27;20034;-50
2024/03/17 01:35:50;;;;;;;37.17;26.77;;;;;;;;;;5155212;27;20374;-49
2024/03/17 01:38:16;;;;;;;30.95;26.42;;;;;;;;;;5153626;27;20113;-51
2024/03/17 01:40:42;;;;;;;35.67;27.38;;;;;;;;;;5155176;27;20015;-49
2024/03/17 01:43:11;;;;;;;37.28;26.90;;;;;;;;;;5154921;27;20022;-49
2024/03/17 01:45:37;;;;;;;34.70;25.08;;;;;;;;;;5140684;27;20022;-55
2024/03/17 01:48:04;;;;;;;32.58;27.20;;;;;;;;;;5154914;27;20492;-53
2024/03/17 01:50:35;;;;;;;32.55;26.75;;;;;;;;;;5154905;27;20015;-54
2024/03/17 01:53:04;;;;;;;32.42;26.17;;;;;;;;;;5154842;27;20479;-54
2024/03/17 01:55:31;;;;;;;35.65;26.85;;;;;;;;;;5154818;27;20023;-53
2024/03/17 01:57:57;;;;;;;34.42;27.15;;;;;;;;;;5155036;27;20018;-52
2024/03/17 02:00:24;;;;;;;33.38;27.33;;;;;;;;;;5154991;27;20372;-53
2024/03/17 02:02:51;;;;;;;31.27;26.30;;;;;;;;;;5155066;27;20019;-50
2024/03/17 02:05:17;;;;;;;31.60;26.70;;;;;;;;;;5136140;27;20030;-51
2024/03/17 02:07:43;;;;;;;32.72;25.90;;;;;;;;;;5154867;27;20078;-51
2024/03/17 02:10:09;;;;;;;36.42;27.17;;;;;;;;;;5121615;27;734051;-49
2024/03/17 02:12:37;;;;;;;36.97;28.08;;;;;;;;;;5125113;27;20046;-51
2024/03/17 02:15:06;;;;;;;36.35;27.63;;;;;;;;;;5155500;27;20437;-55
2024/03/17 02:17:33;;;;;;;31.85;25.88;;;;;;;;;;5152567;27;20189;-54
2024/03/17 02:20:18;;;;;;;33.63;25.67;;;;;;;;;;5153833;27;20087;-55
2024/03/17 02:22:44;;;;;;;33.67;26.33;;;;;;;;;;5155194;27;20034;-52
2024/03/17 02:25:10;;;;;;;35.08;26.52;;;;;;;;;;5152781;27;20023;-54
2024/03/17 02:27:36;;;;;;;31.50;26.27;;;;;;;;;;5135435;27;20771;-54
2024/03/17 02:30:09;;;;;;;33.63;25.52;;;;;;;;;;5153881;27;20027;-52
2024/03/17 02:32:35;;;;;;;30.42;25.20;;;;;;;;;;5133715;27;20031;-54
2024/03/17 02:35:01;;;;;;;30.55;25.85;;;;;;;;;;5133915;27;20027;-50
2024/03/17 02:37:28;;;;;;;32.42;24.90;;;;;;;;;;5153475;27;20113;-50
2024/03/17 02:39:54;;;;;;;30.95;24.90;;;;;;;;;;5155375;27;20027;-50
2024/03/17 02:42:20;;;;;;;33.38;25.95;;;;;;;;;;5155143;27;20040;-50
2024/03/17 02:44:46;;;;;;;29.65;25.15;;;;;;;;;;5155048;27;20466;-52
2024/03/17 02:47:14;;;;;;;30.52;24.27;;;;;;;;;;5136100;27;20082;-51
2024/03/17 02:49:43;;;;;;;31.60;25.70;;;;;;;;;;5154978;27;20023;-49
2024/03/17 02:52:18;;;;;;;32.38;25.58;;;;;;;;;;5154647;27;20376;-51
2024/03/17 02:54:45;;;;;;;29.42;24.40;;;;;;;;;;5152839;27;20408;-51
2024/03/17 02:57:11;;;;;;;29.23;25.13;;;;;;;;;;5154740;27;20066;-53
2024/03/17 02:59:37;;;;;;;30.85;25.98;;;;;;;;;;5143749;27;20110;-51
2024/03/17 03:02:04;;;;;;;34.35;25.42;;;;;;;;;;5132890;27;20340;-50
2024/03/17 03:04:30;;;;;;;28.58;24.60;;;;;;;;;;5154630;27;20029;-48
2024/03/17 03:06:56;;;;;;;32.10;25.35;;;;;;;;;;5154574;27;20022;-51
2024/03/17 03:09:34;;;;;;;32.53;25.85;;;;;;;;;;5154771;27;20023;-51
2024/03/17 03:12:02;;;;;;;32.83;24.98;;;;;;;;;;5134038;27;20038;-50
2024/03/17 03:14:28;;;;;;;32.10;25.48;;;;;;;;;;5129501;27;20107;-48
2024/03/17 03:16:54;;;;;;;32.95;25.35;;;;;;;;;;5154654;27;20030;-48
2024/03/17 03:19:20;;;;;;;31.88;24.38;;;;;;;;;;5154298;27;20023;-52
2024/03/17 03:21:46;;;;;;;30.48;25.13;;;;;;;;;;5154241;27;20030;-51
2024/03/17 03:24:13;;;;;;;35.00;26.65;;;;;;;;;;5154465;27;20045;-49
2024/03/17 03:26:39;;;;;;;30.83;24.70;;;;;;;;;;5154126;27;20117;-50
2024/03/17 03:29:18;;;;;;;33.28;25.10;;;;;;;;;;5154317;27;20058;-48
2024/03/17 03:31:43;;;;;;;31.80;25.17;;;;;;;;;;5154393;27;20038;-49
2024/03/17 03:34:10;;;;;;;33.58;25.73;;;;;;;;;;5154411;27;20482;-49
2024/03/17 03:36:36;;;;;;;31.38;25.52;;;;;;;;;;5118682;27;20584;-50
2024/03/17 03:39:06;;;;;;;33.83;26.70;;;;;;;;;;5135592;27;20437;-49
2024/03/17 03:41:32;;;;;;;35.88;26.25;;;;;;;;;;5154129;27;20026;-49
2024/03/17 03:44:10;;;;;;;32.83;25.52;;;;;;;;;;5135440;27;20388;-49
2024/03/17 03:46:36;;;;;;;35.67;27.75;;;;;;;;;;5154108;27;20015;-48
2024/03/17 03:49:02;;;;;;;36.67;27.63;;;;;;;;;;5153798;27;20023;-48
2024/03/17 03:51:28;;;;;;;32.40;25.67;;;;;;;;;;5154002;27;20022;-50
2024/03/17 03:53:54;;;;;;;35.83;28.05;;;;;;;;;;5153661;27;20038;-49
2024/03/17 03:56:20;;;;;;;34.90;26.92;;;;;;;;;;5135402;27;20015;-48
2024/03/17 03:58:46;;;;;;;35.30;27.65;;;;;;;;;;5154526;27;20050;-49
2024/03/17 04:01:15;;;;;;;34.90;27.42;;;;;;;;;;5154153;27;20019;-50
2024/03/17 04:03:44;;;;;;;32.70;25.33;;;;;;;;;;5153979;27;20023;-50
2024/03/17 04:06:11;;;;;;;35.92;26.52;;;;;;;;;;5135247;27;20015;-51
2024/03/17 04:08:41;;;;;;;33.45;26.40;;;;;;;;;;5153934;27;20421;-49
2024/03/17 04:11:07;;;;;;;36.25;26.92;;;;;;;;;;5153573;27;20126;-50
2024/03/17 04:13:33;;;;;;;36.72;26.58;;;;;;;;;;5154062;27;20087;-49
2024/03/17 04:15:59;;;;;;;37.90;27.73;;;;;;;;;;5153681;27;20031;-52
2024/03/17 04:18:26;;;;;;;36.95;26.25;;;;;;;;;;5153859;27;20084;-51
2024/03/17 04:20:56;;;;;;;37.75;28.70;;;;;;;;;;5154011;27;20069;-54
2024/03/17 04:23:29;;;;;;;31.77;25.23;;;;;;;;;;5153265;27;20023;-49
2024/03/17 04:25:58;;;;;;;40.05;25.77;;;;;;;;;;5135302;27;20113;-51
2024/03/17 04:28:48;;;;;;;35.60;25.88;;;;;;;;;;5153986;27;20045;-52
2024/03/17 04:31:15;;;;;;;36.67;26.42;;;;;;;;;;5152009;27;20026;-49
2024/03/17 04:33:41;;;;;;;34.70;25.90;;;;;;;;;;5134767;27;20110;-49
2024/03/17 04:36:08;;;;;;;38.58;25.95;;;;;;;;;;5135788;27;20455;-49
2024/03/17 04:38:35;;;;;;;35.05;25.73;;;;;;;;;;5157435;27;20053;-49
2024/03/17 04:41:04;;;;;;;32.50;25.70;;;;;;;;;;5158029;27;20023;-49
2024/03/17 04:43:55;;;;;;;36.17;26.40;;;;;;;;;;5138698;27;20464;-50
2024/03/17 04:46:21;;;;;;;33.75;25.45;;;;;;;;;;5155428;27;20460;-52
2024/03/17 04:48:47;;;;;;;35.20;26.17;;;;;;;;;;5156594;27;20425;-55
2024/03/17 04:51:16;;;;;;;34.17;26.35;;;;;;;;;;5157005;27;20022;-55
2024/03/17 04:53:42;;;;;;;33.80;27.15;;;;;;;;;;5157342;27;20048;-54
2024/03/17 04:56:08;;;;;;;38.38;26.20;;;;;;;;;;5155612;27;20023;-54
2024/03/17 04:58:35;;;;;;;32.72;25.73;;;;;;;;;;5157388;27;20123;-55
2024/03/17 05:01:06;;;;;;;31.75;24.60;;;;;;;;;;5155599;27;20018;-53
2024/03/17 05:03:32;;;;;;;31.05;24.58;;;;;;;;;;5156898;27;20507;-53
2024/03/17 05:06:01;;;;;;;31.98;25.90;;;;;;;;;;5152668;27;20047;-52
2024/03/17 05:08:27;;;;;;;30.05;24.58;;;;;;;;;;5147033;27;20061;-54
2024/03/17 05:11:14;;;;;;;32.47;27.45;;;;;;;;;;5156584;27;20138;-53
2024/03/17 05:13:41;;;;;;;36.95;27.02;;;;;;;;;;5156675;27;20121;-53
2024/03/17 05:16:07;;;;;;;38.03;26.80;;;;;;;;;;5156856;27;20015;-55
2024/03/17 05:18:39;;;;;;;34.70;26.60;;;;;;;;;;5154991;27;20042;-53
2024/03/17 05:21:06;;;;;;;38.35;27.05;;;;;;;;;;5153277;27;20030;-55
2024/03/17 05:23:33;;;;;;;33.20;25.02;;;;;;;;;;5154217;27;20019;-50
2024/03/17 05:25:59;;;;;;;36.75;25.67;;;;;;;;;;5153208;27;20468;-53
2024/03/17 05:28:30;;;;;;;33.17;25.88;;;;;;;;;;5153552;27;20029;-52
2024/03/17 05:30:56;;;;;;;34.08;25.27;;;;;;;;;;5153320;27;20018;-50
2024/03/17 05:33:23;;;;;;;33.00;26.38;;;;;;;;;;5154186;27;20449;-54
2024/03/17 05:35:52;;;;;;;32.05;25.67;;;;;;;;;;5156006;27;20015;-51
2024/03/17 05:38:22;;;;;;;31.92;25.55;;;;;;;;;;5156169;27;20115;-50
2024/03/17 05:40:59;;;;;;;34.30;25.48;;;;;;;;;;5151362;27;20029;-52
2024/03/17 05:43:26;;;;;;;29.58;25.20;;;;;;;;;;5155976;27;20019;-50
2024/03/17 05:45:52;;;;;;;29.92;23.70;;;;;;;;;;5144827;27;20069;-52
2024/03/17 05:48:18;;;;;;;33.38;25.42;;;;;;;;;;5137024;27;20678;-53
2024/03/17 05:50:44;;;;;;;30.80;24.60;;;;;;;;;;5147137;27;20011;-53
2024/03/17 05:53:11;;;;;;;29.60;25.98;;;;;;;;;;5150154;27;20127;-51
2024/03/17 05:55:37;;;;;;;35.40;25.08;;;;;;;;;;5155937;27;20023;-51
2024/03/17 05:58:03;;;;;;;33.13;26.52;;;;;;;;;;5156135;27;20053;-52
2024/03/17 06:00:30;;;;;;;36.00;26.73;;;;;;;;;;5155988;27;20417;-50
2024/03/17 06:02:56;;;;;;;40.35;28.33;;;;;;;;;;5155841;27;20023;-50
2024/03/17 06:05:22;;;;;;;37.70;27.75;;;;;;;;;;5155530;27;20063;-51
2024/03/17 06:07:48;;;;;;;43.33;30.48;;;;;;;;;;5137024;27;20023;-50
2024/03/17 06:10:14;;;;;;;44.13;31.25;;;;;;;;;;5140785;27;20130;-50
2024/03/17 06:12:40;;;;;;;39.47;29.15;;;;;;;;;;5155538;27;20086;-49
2024/03/17 06:15:07;;;;;;;42.33;32.00;;;;;;;;;;5155830;27;20022;-51
2024/03/17 06:17:39;;;;;;;40.53;30.92;;;;;;;;;;5136905;27;20494;-50
2024/03/17 06:20:05;;;;;;;42.90;31.50;;;;;;;;;;5155398;27;20019;-51
2024/03/17 06:22:32;;;;;;;40.67;30.02;;;;;;;;;;5155273;27;20325;-50
2024/03/17 06:24:58;;;;;;;35.25;25.95;;;;;;;;;;5155648;27;20050;-49
2024/03/17 06:27:24;;;;;;;31.88;24.77;;;;;;;;;;5155106;27;20051;-50
2024/03/17 06:29:50;;;;;;;31.20;24.58;;;;;;;;;;5155366;27;20098;-48
2024/03/17 06:32:17;;;;;;;30.60;24.50;;;;;;;;;;5136388;27;20084;-50
2024/03/17 06:34:49;;;;;;;30.50;22.90;;;;;;;;;;5155202;27;20015;-49
2024/03/17 06:37:18;;;;;;;32.15;24.38;;;;;;;;;;5155006;27;20026;-50
2024/03/17 06:39:46;;;;;;;29.63;22.73;;;;;;;;;;5154831;27;20403;-51
2024/03/17 06:42:12;;;;;;;28.08;22.23;;;;;;;;;;5154905;27;20018;-50
2024/03/17 06:44:39;;;;;;;30.52;24.20;;;;;;;;;;5140221;27;20098;-50
2024/03/17 06:47:05;;;;;;;32.65;22.80;;;;;;;;;;5145521;27;20423;-50
2024/03/17 06:49:32;;;;;;;33.95;24.67;;;;;;;;;;5149698;27;20026;-52
2024/03/17 06:51:58;;;;;;;26.55;21.65;;;;;;;;;;5154761;27;20023;-52
2024/03/17 06:54:24;;;;;;;30.02;24.10;;;;;;;;;;5132492;27;20541;-50
2024/03/17 06:56:51;;;;;;;27.10;21.27;;;;;;;;;;5153940;27;20018;-52
2024/03/17 06:59:24;;;;;;;26.98;22.50;;;;;;;;;;5154290;27;20022;-49
2024/03/17 07:01:50;;;;;;;29.00;23.55;;;;;;;;;;5135671;27;20048;-52
2024/03/17 07:04:16;;;;;;;29.95;23.70;;;;;;;;;;5154557;27;20049;-51
2024/03/17 07:06:43;;;;;;;30.42;22.73;;;;;;;;;;5154601;27;20034;-52
2024/03/17 07:09:09;;;;;;;30.05;22.83;;;;;;;;;;5135994;27;20077;-51
2024/03/17 07:11:35;;;;;;;26.13;21.00;;;;;;;;;;5154164;27;20125;-50
2024/03/17 07:14:01;;;;;;;29.80;24.15;;;;;;;;;;5154621;27;20038;-49
2024/03/17 07:16:27;;;;;;;30.40;23.60;;;;;;;;;;5154179;27;20026;-52
2024/03/17 07:18:53;;;;;;;29.17;22.75;;;;;;;;;;5154360;27;20029;-50
2024/03/17 07:21:19;;;;;;;29.85;21.92;;;;;;;;;;5154324;27;20018;-51
2024/03/17 07:23:48;;;;;;;29.80;22.73;;;;;;;;;;5153482;27;20086;-50
2024/03/17 07:26:14;;;;;;;31.35;23.23;;;;;;;;;;5153772;27;20030;-54
2024/03/17 07:28:40;;;;;;;28.10;22.58;;;;;;;;;;5154542;27;20109;-52
2024/03/17 07:31:08;;;;;;;27.77;22.83;;;;;;;;;;5140515;27;20019;-55
2024/03/17 07:33:35;;;;;;;33.10;22.65;;;;;;;;;;5152940;27;20038;-55
2024/03/17 07:36:02;;;;;;;27.77;22.27;;;;;;;;;;5154157;27;20078;-53
2024/03/17 07:38:28;;;;;;;29.35;23.48;;;;;;;;;;5153970;27;20022;-53
2024/03/17 07:41:12;;;;;;;30.65;23.45;;;;;;;;;;5154392;27;20027;-53
2024/03/17 07:43:39;;;;;;;30.48;23.05;;;;;;;;;;5154167;27;20023;-51
2024/03/17 07:46:18;;;;;;;27.33;22.08;;;;;;;;;;5154322;27;20117;-55
2024/03/17 07:48:44;;;;;;;27.80;21.63;;;;;;;;;;5153734;27;20660;-51
2024/03/17 07:51:11;;;;;;;31.25;22.73;;;;;;;;;;5153930;27;20030;-50
2024/03/17 07:53:38;;;;;;;32.50;24.08;;;;;;;;;;5153940;27;20022;-53
2024/03/17 07:56:05;;;;;;;32.88;23.50;;;;;;;;;;5153923;27;20029;-51
2024/03/17 07:58:34;;;;;;;30.55;21.02;;;;;;;;;;5153818;27;20476;-50
2024/03/17 08:01:01;;;;;;;23.73;20.05;;;;;;;;;;5153923;27;20019;-51
2024/03/17 08:03:28;;;;;;;26.65;20.65;;;;;;;;;;5153942;27;20155;-51
2024/03/17 08:05:54;;;;;;;25.45;19.20;;;;;;;;;;5154024;27;20030;-51
2024/03/17 08:08:21;;;;;;;31.25;20.30;;;;;;;;;;5153761;27;20038;-53
2024/03/17 08:10:50;;;;;;;25.63;20.85;;;;;;;;;;5135500;27;20051;-52
2024/03/17 08:13:16;;;;;;;26.63;19.85;;;;;;;;;;5139192;27;20039;-53
2024/03/17 08:15:43;;;;;;;27.23;22.25;;;;;;;;;;5139095;27;20440;-51
2024/03/17 08:18:09;;;;;;;25.92;20.40;;;;;;;;;;5138878;27;20493;-51
2024/03/17 08:20:46;;;;;;;29.58;22.13;;;;;;;;;;5157657;27;20111;-51
2024/03/17 08:23:12;;;;;;;23.77;19.70;;;;;;;;;;5157788;27;20023;-48
2024/03/17 08:25:39;;;;;;;23.92;19.30;;;;;;;;;;5157537;27;20380;-50
2024/03/17 08:28:05;;;;;;;25.17;18.42;;;;;;;;;;5157878;27;20035;-48
2024/03/17 08:30:31;;;;;;;23.73;19.08;;;;;;;;;;5157460;27;20129;-51
2024/03/17 08:36:04;;;;;;;27.58;19.42;;;;;;;;;;5151089;27;20062;-53
2024/03/17 08:38:31;;;;;;;22.30;18.55;;;;;;;;;;5157621;27;20019;-49
2024/03/17 08:40:58;;;;;;;25.45;19.67;;;;;;;;;;5157251;27;20468;-49
2024/03/17 08:43:24;;;;;;;24.27;19.30;;;;;;;;;;5157443;27;20047;-49
2024/03/17 08:46:07;;;;;;;23.00;19.15;;;;;;;;;;5157501;27;20023;-49
2024/03/17 08:48:33;;;;;;;28.63;21.48;;;;;;;;;;5124478;27;20025;-52
2024/03/17 08:51:00;;;;;;;29.75;24.10;;;;;;;;;;5150105;27;20018;-51
2024/03/17 08:53:26;;;;;;;31.20;24.60;;;;;;;;;;5157045;27;20030;-49
2024/03/17 08:55:53;;;;;;;31.67;25.17;;;;;;;;;;5157381;27;20380;-48
2024/03/17 08:58:19;;;;;;;30.92;24.88;;;;;;;;;;5138424;27;20422;-49
2024/03/17 09:00:48;;;;;;;32.08;24.98;;;;;;;;;;5156967;27;20029;-49
2024/03/17 09:03:14;;;;;;;31.83;24.77;;;;;;;;;;5156776;27;20440;-51
2024/03/17 09:05:41;;;;;;;29.98;24.88;;;;;;;;;;5156364;27;20027;-54
2024/03/17 09:08:11;;;;;;;29.27;23.70;;;;;;;;;;5156718;27;20038;-50
2024/03/17 09:10:43;;;;;;;29.83;25.20;;;;;;;;;;5142428;27;20361;-50
2024/03/17 09:13:19;;;;;;;35.33;25.45;;;;;;;;;;5156595;27;20057;-50
2024/03/17 09:15:51;;;;;;;35.30;26.30;;;;;;;;;;5124302;27;20029;-50
2024/03/17 09:18:27;;;;;;;35.10;26.48;;;;;;;;;;5156503;27;20022;-49
2024/03/17 09:21:13;;;;;;;31.15;24.60;;;;;;;;;;5142988;27;20495;-50
2024/03/17 09:23:39;;;;;;;35.97;27.45;;;;;;;;;;5137583;27;20050;-54
2024/03/17 09:26:08;;;;;;;37.22;27.40;;;;;;;;;;5156737;27;20033;-51
2024/03/17 09:28:34;;;;;;;33.15;26.60;;;;;;;;;;5156467;27;20046;-50
2024/03/17 09:31:11;;;;;;;35.88;26.10;;;;;;;;;;5156635;27;20068;-49
2024/03/17 09:33:40;;;;;;;31.38;25.40;;;;;;;;;;5156075;27;20091;-50
2024/03/17 09:36:06;;;;;;;33.25;25.92;;;;;;;;;;5156150;27;20023;-50
2024/03/17 09:38:33;;;;;;;34.83;24.52;;;;;;;;;;5137636;27;20019;-49
2024/03/17 09:41:02;;;;;;;33.72;25.70;;;;;;;;;;5153657;27;20114;-54
2024/03/17 09:43:29;;;;;;;34.00;25.98;;;;;;;;;;5152340;27;20031;-52
2024/03/17 09:45:58;;;;;;;30.40;24.70;;;;;;;;;;5151905;27;20033;-54
2024/03/17 09:48:25;;;;;;;32.42;26.00;;;;;;;;;;5146248;27;20101;-55
2024/03/17 09:50:55;;;;;;;36.15;25.75;;;;;;;;;;5153099;27;20019;-55
2024/03/17 09:53:41;;;;;;;33.95;25.42;;;;;;;;;;5152642;27;20038;-54
2024/03/17 09:56:11;;;;;;;32.40;24.98;;;;;;;;;;5152434;27;20027;-52
2024/03/17 09:58:37;;;;;;;31.52;23.55;;;;;;;;;;5154178;27;20045;-55
2024/03/17 10:04:10;;;;;;;32.78;24.35;;;;;;;;;;5150410;27;20030;-54
2024/03/17 10:06:44;;;;;;;31.08;24.17;;;;;;;;;;5155352;27;20050;-51
2024/03/17 10:09:20;;;;;;;35.60;25.67;;;;;;;;;;5154041;27;20432;-53
2024/03/17 10:11:46;;;;;;;32.70;25.85;;;;;;;;;;5155543;27;20026;-50
2024/03/17 10:14:16;;;;;;;29.73;23.98;;;;;;;;;;5155461;27;20087;-52
2024/03/17 10:16:46;;;;;;;32.10;23.27;;;;;;;;;;5137108;27;20050;-50
2024/03/17 10:19:16;;;;;;;30.05;23.27;;;;;;;;;;5140707;27;20098;-53
2024/03/17 10:21:43;;;;;;;32.35;24.15;;;;;;;;;;5155340;27;20479;-50
2024/03/17 10:24:23;;;;;;;27.17;22.50;;;;;;;;;;5136611;27;20075;-53
2024/03/17 10:26:50;;;;;;;27.70;21.65;;;;;;;;;;5155193;27;20046;-53
2024/03/17 10:29:25;;;;;;;30.02;21.92;;;;;;;;;;5155159;27;20011;-50
2024/03/17 10:31:52;;;;;;;28.33;21.83;;;;;;;;;;5155087;27;20015;-51
2024/03/17 10:34:18;;;;;;;27.42;21.38;;;;;;;;;;5139565;27;20046;-51
2024/03/17 10:36:47;;;;;;;28.40;21.60;;;;;;;;;;5154899;27;20111;-49
2024/03/17 10:39:38;;;;;;;27.52;22.50;;;;;;;;;;5155012;27;20029;-53
2024/03/17 10:42:05;;;;;;;26.67;22.35;;;;;;;;;;5143078;27;20033;-50
2024/03/17 10:44:31;;;;;;;26.00;21.60;;;;;;;;;;5154082;27;20019;-53
2024/03/17 10:46:58;;;;;;;28.83;20.05;;;;;;;;;;5141641;27;20026;-52
2024/03/17 10:49:32;;;;;;;26.83;20.73;;;;;;;;;;5154904;27;20083;-55
2024/03/17 10:51:59;;;;;;;28.75;20.98;;;;;;;;;;5155246;27;20042;-53
2024/03/17 10:54:28;;;;;;;28.23;22.83;;;;;;;;;;5136182;27;20019;-50
2024/03/17 10:56:56;;;;;;;33.47;24.13;;;;;;;;;;5154942;27;20038;-50
2024/03/17 10:59:25;;;;;;;29.80;22.88;;;;;;;;;;5154676;27;20506;-48
2024/03/17 11:01:53;;;;;;;27.92;24.00;;;;;;;;;;5150869;27;20023;-50
2024/03/17 11:04:19;;;;;;;29.63;23.77;;;;;;;;;;5144222;27;20527;-51
2024/03/17 11:06:46;;;;;;;31.42;24.67;;;;;;;;;;5153434;27;20135;-53
2024/03/17 11:09:14;;;;;;;31.45;23.85;;;;;;;;;;5141145;27;20023;-49
2024/03/17 11:11:43;;;;;;;31.70;22.55;;;;;;;;;;5154304;27;20345;-51
2024/03/17 11:14:19;;;;;;;34.10;24.35;;;;;;;;;;5154244;27;20038;-50
2024/03/17 11:16:47;;;;;;;31.90;24.20;;;;;;;;;;5154485;27;20022;-49
2024/03/17 11:19:17;;;;;;;29.27;22.08;;;;;;;;;;5131987;27;20019;-49
2024/03/17 11:21:43;;;;;;;27.98;21.75;;;;;;;;;;5146189;27;20026;-50
2024/03/17 11:24:20;;;;;;;28.77;21.08;;;;;;;;;;5153996;27;20372;-50
2024/03/17 11:26:46;;;;;;;25.02;21.45;;;;;;;;;;5135548;27;20026;-55
2024/03/17 11:32:28;;;;;;;27.95;21.33;;;;;;;;;;5090987;27;20091;-51
2024/03/17 11:35:13;;;;;;;29.25;23.02;;;;;;;;;;5154590;27;20027;-51
2024/03/17 11:37:42;;;;;;;27.85;22.30;;;;;;;;;;5154103;27;20472;-52
2024/03/17 11:40:23;;;;;;;25.45;21.63;;;;;;;;;;5154074;27;20332;-50
2024/03/17 11:43:12;;;;;;;27.48;21.50;;;;;;;;;;5154083;27;20022;-53
2024/03/17 11:45:38;;;;;;;27.52;19.50;;;;;;;;;;5155695;27;20089;-49
2024/03/17 11:48:12;;;;;;;27.88;20.52;;;;;;;;;;5158313;27;20490;-50
2024/03/17 11:50:39;;;;;;;27.60;21.73;;;;;;;;;;5158244;27;20378;-49
2024/03/17 11:53:05;;;;;;;24.48;20.65;;;;;;;;;;5139529;27;20114;-48
2024/03/17 11:55:31;;;;;;;24.58;20.75;;;;;;;;;;5139659;27;20106;-53
2024/03/17 11:57:57;;;;;;;24.38;20.70;;;;;;;;;;5158473;27;20030;-50
2024/03/17 12:00:24;;;;;;;24.40;18.45;;;;;;;;;;5158165;27;20095;-50
2024/03/17 12:02:51;;;;;;;23.67;18.42;;;;;;;;;;5139250;27;20014;-51
2024/03/17 12:05:18;;;;;;;22.63;17.35;;;;;;;;;;5158074;27;20023;-49
2024/03/17 12:07:44;;;;;;;23.45;18.58;;;;;;;;;;5158154;27;20413;-50
2024/03/17 12:10:13;;;;;;;22.33;18.58;;;;;;;;;;5139258;27;20095;-51
2024/03/17 12:12:39;;;;;;;24.27;20.10;;;;;;;;;;5157850;27;20023;-54
2024/03/17 12:15:16;;;;;;;24.30;18.77;;;;;;;;;;5158083;27;20395;-52
2024/03/17 12:17:42;;;;;;;20.95;17.25;;;;;;;;;;5144668;27;20431;-52
2024/03/17 12:20:17;;;;;;;21.35;17.13;;;;;;;;;;5157715;27;20463;-50
2024/03/17 12:22:43;;;;;;;18.85;15.70;;;;;;;;;;5157851;27;20015;-48
2024/03/17 12:25:15;;;;;;;21.40;17.77;;;;;;;;;;5157827;27;20023;-48
2024/03/17 12:27:44;;;;;;;20.85;15.98;;;;;;;;;;5152158;27;20019;-52
2024/03/17 12:30:10;;;;;;;22.63;18.08;;;;;;;;;;5149045;27;20026;-49
2024/03/17 12:32:38;;;;;;;19.60;15.73;;;;;;;;;;5155996;27;20042;-53
2024/03/17 12:35:11;;;;;;;18.58;16.50;;;;;;;;;;5153538;27;20045;-52
2024/03/17 12:37:37;;;;;;;18.83;16.63;;;;;;;;;;5138563;27;20041;-53
2024/03/17 12:40:04;;;;;;;21.00;16.92;;;;;;;;;;5149788;27;20018;-55
2024/03/17 12:42:32;;;;;;;21.05;16.17;;;;;;;;;;5144615;27;20058;-53
2024/03/17 12:45:00;;;;;;;19.38;16.95;;;;;;;;;;5137092;27;20166;-54
2024/03/17 12:47:30;;;;;;;20.98;16.88;;;;;;;;;;5136572;27;20019;-54
2024/03/17 12:49:56;;;;;;;19.98;16.38;;;;;;;;;;5151716;27;20023;-55
2024/03/17 12:52:28;;;;;;;17.95;15.60;;;;;;;;;;5136425;27;20064;-53
2024/03/17 13:00:33;;;;;;;17.10;14.73;;;;;;;;;;5143484;27;20083;-52
2024/03/17 13:03:00;;;;;;;17.58;15.55;;;;;;;;;;5157048;27;20490;-49
2024/03/17 13:05:38;;;;;;;17.90;14.90;;;;;;;;;;5156915;27;20018;-52
2024/03/17 13:08:04;;;;;;;18.50;15.25;;;;;;;;;;5144705;27;20377;-50
2024/03/17 13:10:31;;;;;;;19.10;15.40;;;;;;;;;;5135807;27;20091;-52
2024/03/17 13:13:03;;;;;;;17.27;14.70;;;;;;;;;;5146642;27;20035;-53
2024/03/17 13:15:35;;;;;;;20.55;17.00;;;;;;;;;;5156683;27;20015;-50
2024/03/17 13:18:03;;;;;;;20.42;16.85;;;;;;;;;;5138184;27;20058;-54
2024/03/17 13:20:29;;;;;;;20.88;17.50;;;;;;;;;;5156532;27;20026;-53
2024/03/17 13:22:55;;;;;;;17.38;15.00;;;;;;;;;;5156616;27;20022;-52
2024/03/17 13:25:24;;;;;;;23.15;18.15;;;;;;;;;;5156452;27;20380;-54
2024/03/17 13:27:50;;;;;;;19.75;17.15;;;;;;;;;;5156580;27;20023;-49
2024/03/17 13:30:17;;;;;;;23.55;18.83;;;;;;;;;;5156558;27;20468;-50
2024/03/17 13:32:47;;;;;;;21.55;16.58;;;;;;;;;;5156284;27;20030;-49
2024/03/17 13:35:16;;;;;;;19.80;16.27;;;;;;;;;;5156562;27;20046;-52
2024/03/17 13:37:42;;;;;;;21.20;16.55;;;;;;;;;;5156216;27;20027;-50
2024/03/17 13:40:12;;;;;;;21.38;15.98;;;;;;;;;;5156442;27;20023;-49
2024/03/17 13:42:38;;;;;;;16.60;14.90;;;;;;;;;;5140080;27;20098;-52
2024/03/17 13:45:04;;;;;;;24.42;17.33;;;;;;;;;;5135476;27;20054;-53
2024/03/17 13:47:30;;;;;;;20.60;17.35;;;;;;;;;;5149640;27;20498;-51
2024/03/17 13:49:56;;;;;;;20.15;17.73;;;;;;;;;;5156177;27;20032;-54
2024/03/17 13:52:22;;;;;;;18.88;16.15;;;;;;;;;;5156087;27;20491;-52
2024/03/17 13:54:48;;;;;;;22.35;16.70;;;;;;;;;;5137060;27;20047;-52
2024/03/17 13:57:15;;;;;;;20.13;16.90;;;;;;;;;;5153075;27;20444;-49
2024/03/17 13:59:41;;;;;;;24.10;18.02;;;;;;;;;;5152179;27;20053;-51
2024/03/17 14:02:12;;;;;;;19.13;16.80;;;;;;;;;;5132930;27;20038;-54
2024/03/17 14:04:38;;;;;;;19.75;15.82;;;;;;;;;;5137865;27;20019;-51
2024/03/17 14:07:04;;;;;;;23.45;16.55;;;;;;;;;;5142792;27;20033;-50
2024/03/17 14:09:31;;;;;;;19.33;16.13;;;;;;;;;;5147691;27;20019;-54
2024/03/17 14:11:57;;;;;;;21.77;18.52;;;;;;;;;;5147080;27;20035;-50
2024/03/17 14:14:25;;;;;;;19.90;17.77;;;;;;;;;;5143472;27;20113;-51
2024/03/17 14:16:51;;;;;;;21.45;19.02;;;;;;;;;;5149576;27;20402;-51
2024/03/17 14:19:17;;;;;;;23.83;18.92;;;;;;;;;;5148876;27;20023;-50
2024/03/17 14:21:43;;;;;;;23.98;19.13;;;;;;;;;;5142969;27;20379;-50
2024/03/17 14:24:10;;;;;;;25.30;21.02;;;;;;;;;;5147160;27;20023;-51
2024/03/17 14:26:36;;;;;;;24.52;19.95;;;;;;;;;;5142895;27;20037;-48
2024/03/17 14:29:02;;;;;;;23.75;17.60;;;;;;;;;;5145899;27;20488;-49
2024/03/17 14:31:35;;;;;;;22.38;18.42;;;;;;;;;;5145423;27;20057;-48
2024/03/17 14:34:01;;;;;;;21.92;17.58;;;;;;;;;;5147478;27;20049;-46
2024/03/17 14:36:29;;;;;;;20.05;17.88;;;;;;;;;;5141902;27;20023;-46
2024/03/17 14:38:55;;;;;;;23.13;16.73;;;;;;;;;;5125266;27;20486;-49
2024/03/17 14:41:21;;;;;;;18.20;16.05;;;;;;;;;;5151462;27;20023;-46